sensor_id;sensor_type;location;lat;lon;timestamp;P1;durP1;ratioP1;P2;durP2;ratioP2
22904;SDS011;11619;50.140;8.518;2023-07-08T00:00:44;7.32;;;5.47;;
22904;SDS011;11619;50.140;8.518;2023-07-08T00:03:15;5.63;;;5.13;;
22904;SDS011;11619;50.140;8.518;2023-07-08T00:05:42;7.50;;;5.03;;
22904;SDS011;11619;50.140;8.518;2023-07-08T00:08:15;7.60;;;5.07;;
22904;SDS011;11619;50.140;8.518;2023-07-08T00:10:42;6.03;;;5.00;;
22904;SDS011;11619;50.140;8.518;2023-07-08T00:13:09;7.68;;;5.05;;
22904;SDS011;11619;50.140;8.518;2023-07-08T00:15:36;6.00;;;4.93;;
22904;SDS011;11619;50.140;8.518;2023-07-08T00:18:11;5.40;;;4.78;;
22904;SDS011;11619;50.140;8.518;2023-07-08T00:20:44;5.38;;;4.78;;
22904;SDS011;11619;50.140;8.518;2023-07-08T00:23:12;5.50;;;4.85;;
22904;SDS011;11619;50.140;8.518;2023-07-08T00:25:38;7.40;;;5.28;;
22904;SDS011;11619;50.140;8.518;2023-07-08T00:28:09;5.28;;;4.75;;
22904;SDS011;11619;50.140;8.518;2023-07-08T00:30:36;5.40;;;4.43;;
22904;SDS011;11619;50.140;8.518;2023-07-08T00:33:03;6.55;;;5.07;;
22904;SDS011;11619;50.140;8.518;2023-07-08T00:35:33;5.85;;;5.25;;
22904;SDS011;11619;50.140;8.518;2023-07-08T00:38:01;5.18;;;4.68;;
22904;SDS011;11619;50.140;8.518;2023-07-08T00:40:38;5.55;;;5.05;;
22904;SDS011;11619;50.140;8.518;2023-07-08T00:43:15;7.47;;;4.85;;
22904;SDS011;11619;50.140;8.518;2023-07-08T00:45:44;5.85;;;5.20;;
22904;SDS011;11619;50.140;8.518;2023-07-08T00:48:28;5.65;;;5.00;;
22904;SDS011;11619;50.140;8.518;2023-07-08T00:50:56;4.93;;;4.43;;
22904;SDS011;11619;50.140;8.518;2023-07-08T00:53:33;6.35;;;5.70;;
22904;SDS011;11619;50.140;8.518;2023-07-08T00:58:33;7.13;;;5.18;;
22904;SDS011;11619;50.140;8.518;2023-07-08T01:01:01;5.57;;;4.95;;
22904;SDS011;11619;50.140;8.518;2023-07-08T01:03:30;6.07;;;5.47;;
22904;SDS011;11619;50.140;8.518;2023-07-08T01:05:58;5.88;;;4.93;;
22904;SDS011;11619;50.140;8.518;2023-07-08T01:08:27;6.05;;;5.03;;
22904;SDS011;11619;50.140;8.518;2023-07-08T01:10:56;6.95;;;5.40;;
22904;SDS011;11619;50.140;8.518;2023-07-08T01:13:29;5.88;;;5.15;;
22904;SDS011;11619;50.140;8.518;2023-07-08T01:15:58;6.68;;;5.10;;
22904;SDS011;11619;50.140;8.518;2023-07-08T01:18:25;6.47;;;5.32;;
22904;SDS011;11619;50.140;8.518;2023-07-08T01:20:51;5.20;;;4.70;;
22904;SDS011;11619;50.140;8.518;2023-07-08T01:23:22;6.60;;;4.63;;
22904;SDS011;11619;50.140;8.518;2023-07-08T01:25:49;5.72;;;4.93;;
22904;SDS011;11619;50.140;8.518;2023-07-08T01:28:15;5.35;;;4.85;;
22904;SDS011;11619;50.140;8.518;2023-07-08T01:30:43;5.20;;;4.70;;
22904;SDS011;11619;50.140;8.518;2023-07-08T01:33:17;4.57;;;4.18;;
22904;SDS011;11619;50.140;8.518;2023-07-08T01:35:45;5.80;;;4.90;;
22904;SDS011;11619;50.140;8.518;2023-07-08T01:38:16;6.47;;;5.05;;
22904;SDS011;11619;50.140;8.518;2023-07-08T01:40:48;5.75;;;4.95;;
22904;SDS011;11619;50.140;8.518;2023-07-08T01:43:16;5.22;;;4.70;;
22904;SDS011;11619;50.140;8.518;2023-07-08T01:45:43;6.40;;;5.28;;
22904;SDS011;11619;50.140;8.518;2023-07-08T01:48:11;6.38;;;4.95;;
22904;SDS011;11619;50.140;8.518;2023-07-08T01:50:41;5.43;;;4.93;;
22904;SDS011;11619;50.140;8.518;2023-07-08T01:53:13;6.43;;;5.20;;
22904;SDS011;11619;50.140;8.518;2023-07-08T01:55:41;5.50;;;4.70;;
22904;SDS011;11619;50.140;8.518;2023-07-08T01:58:08;6.35;;;5.00;;
22904;SDS011;11619;50.140;8.518;2023-07-08T02:00:34;4.97;;;4.03;;
22904;SDS011;11619;50.140;8.518;2023-07-08T02:03:01;5.57;;;4.88;;
22904;SDS011;11619;50.140;8.518;2023-07-08T02:05:27;6.40;;;5.03;;
22904;SDS011;11619;50.140;8.518;2023-07-08T02:07:54;5.25;;;4.75;;
22904;SDS011;11619;50.140;8.518;2023-07-08T02:10:21;5.57;;;4.93;;
22904;SDS011;11619;50.140;8.518;2023-07-08T02:12:49;5.90;;;5.30;;
22904;SDS011;11619;50.140;8.518;2023-07-08T02:15:16;5.75;;;5.15;;
22904;SDS011;11619;50.140;8.518;2023-07-08T02:17:42;5.68;;;4.40;;
22904;SDS011;11619;50.140;8.518;2023-07-08T02:20:09;6.63;;;5.30;;
22904;SDS011;11619;50.140;8.518;2023-07-08T02:22:36;5.25;;;4.75;;
22904;SDS011;11619;50.140;8.518;2023-07-08T02:25:03;5.90;;;4.85;;
22904;SDS011;11619;50.140;8.518;2023-07-08T02:27:29;8.10;;;5.68;;
22904;SDS011;11619;50.140;8.518;2023-07-08T02:29:56;5.53;;;4.93;;
22904;SDS011;11619;50.140;8.518;2023-07-08T02:32:22;8.25;;;4.75;;
22904;SDS011;11619;50.140;8.518;2023-07-08T02:34:49;6.25;;;4.88;;
22904;SDS011;11619;50.140;8.518;2023-07-08T02:37:18;5.38;;;4.90;;
22904;SDS011;11619;50.140;8.518;2023-07-08T02:39:44;5.90;;;5.15;;
22904;SDS011;11619;50.140;8.518;2023-07-08T02:42:11;6.07;;;5.45;;
22904;SDS011;11619;50.140;8.518;2023-07-08T02:44:37;6.72;;;4.75;;
22904;SDS011;11619;50.140;8.518;2023-07-08T02:47:04;5.70;;;5.20;;
22904;SDS011;11619;50.140;8.518;2023-07-08T02:49:30;7.50;;;5.32;;
22904;SDS011;11619;50.140;8.518;2023-07-08T02:51:57;5.53;;;4.93;;
22904;SDS011;11619;50.140;8.518;2023-07-08T02:54:23;5.30;;;4.80;;
22904;SDS011;11619;50.140;8.518;2023-07-08T02:56:50;5.50;;;4.90;;
22904;SDS011;11619;50.140;8.518;2023-07-08T02:59:16;5.50;;;5.00;;
22904;SDS011;11619;50.140;8.518;2023-07-08T03:01:43;6.22;;;5.00;;
22904;SDS011;11619;50.140;8.518;2023-07-08T03:04:10;5.53;;;4.93;;
22904;SDS011;11619;50.140;8.518;2023-07-08T03:06:40;6.00;;;5.40;;
22904;SDS011;11619;50.140;8.518;2023-07-08T03:09:07;5.38;;;4.78;;
22904;SDS011;11619;50.140;8.518;2023-07-08T03:11:34;5.75;;;5.00;;
22904;SDS011;11619;50.140;8.518;2023-07-08T03:14:02;7.78;;;5.43;;
22904;SDS011;11619;50.140;8.518;2023-07-08T03:16:29;5.40;;;4.90;;
22904;SDS011;11619;50.140;8.518;2023-07-08T03:18:56;6.15;;;5.25;;
22904;SDS011;11619;50.140;8.518;2023-07-08T03:21:22;5.70;;;5.00;;
22904;SDS011;11619;50.140;8.518;2023-07-08T03:23:49;6.82;;;5.20;;
22904;SDS011;11619;50.140;8.518;2023-07-08T03:26:16;5.20;;;4.65;;
22904;SDS011;11619;50.140;8.518;2023-07-08T03:28:45;5.95;;;5.35;;
22904;SDS011;11619;50.140;8.518;2023-07-08T03:31:12;5.60;;;5.10;;
22904;SDS011;11619;50.140;8.518;2023-07-08T03:33:39;7.10;;;5.85;;
22904;SDS011;11619;50.140;8.518;2023-07-08T03:36:10;6.50;;;5.35;;
22904;SDS011;11619;50.140;8.518;2023-07-08T03:38:38;8.18;;;5.97;;
22904;SDS011;11619;50.140;8.518;2023-07-08T03:41:04;6.50;;;5.43;;
22904;SDS011;11619;50.140;8.518;2023-07-08T03:43:31;5.93;;;5.35;;
22904;SDS011;11619;50.140;8.518;2023-07-08T03:45:58;7.47;;;6.07;;
22904;SDS011;11619;50.140;8.518;2023-07-08T03:48:24;6.25;;;5.63;;
22904;SDS011;11619;50.140;8.518;2023-07-08T03:50:50;6.82;;;5.32;;
22904;SDS011;11619;50.140;8.518;2023-07-08T03:53:17;7.35;;;5.75;;
22904;SDS011;11619;50.140;8.518;2023-07-08T03:55:43;5.85;;;5.10;;
22904;SDS011;11619;50.140;8.518;2023-07-08T03:58:10;7.25;;;5.15;;
22904;SDS011;11619;50.140;8.518;2023-07-08T04:00:36;6.13;;;5.32;;
22904;SDS011;11619;50.140;8.518;2023-07-08T04:03:03;6.13;;;5.53;;
22904;SDS011;11619;50.140;8.518;2023-07-08T04:05:29;6.38;;;5.78;;
22904;SDS011;11619;50.140;8.518;2023-07-08T04:07:56;5.95;;;5.43;;
22904;SDS011;11619;50.140;8.518;2023-07-08T04:10:22;6.57;;;5.65;;
22904;SDS011;11619;50.140;8.518;2023-07-08T04:12:48;7.53;;;5.97;;
22904;SDS011;11619;50.140;8.518;2023-07-08T04:15:15;6.68;;;5.78;;
22904;SDS011;11619;50.140;8.518;2023-07-08T04:17:45;6.75;;;5.50;;
22904;SDS011;11619;50.140;8.518;2023-07-08T04:20:14;6.40;;;5.30;;
22904;SDS011;11619;50.140;8.518;2023-07-08T04:22:41;5.50;;;4.85;;
22904;SDS011;11619;50.140;8.518;2023-07-08T04:25:08;5.40;;;4.90;;
22904;SDS011;11619;50.140;8.518;2023-07-08T04:27:37;5.10;;;4.57;;
22904;SDS011;11619;50.140;8.518;2023-07-08T04:30:03;6.55;;;4.97;;
22904;SDS011;11619;50.140;8.518;2023-07-08T04:32:30;7.50;;;5.30;;
22904;SDS011;11619;50.140;8.518;2023-07-08T04:34:57;5.60;;;4.47;;
22904;SDS011;11619;50.140;8.518;2023-07-08T04:37:23;6.60;;;4.60;;
22904;SDS011;11619;50.140;8.518;2023-07-08T04:39:50;7.05;;;5.47;;
22904;SDS011;11619;50.140;8.518;2023-07-08T04:42:16;5.72;;;5.00;;
22904;SDS011;11619;50.140;8.518;2023-07-08T04:44:43;7.10;;;5.20;;
22904;SDS011;11619;50.140;8.518;2023-07-08T04:47:10;6.78;;;5.35;;
22904;SDS011;11619;50.140;8.518;2023-07-08T04:49:39;5.20;;;4.70;;
22904;SDS011;11619;50.140;8.518;2023-07-08T04:52:06;5.13;;;4.63;;
22904;SDS011;11619;50.140;8.518;2023-07-08T04:54:34;6.43;;;4.97;;
22904;SDS011;11619;50.140;8.518;2023-07-08T04:57:01;5.78;;;4.68;;
22904;SDS011;11619;50.140;8.518;2023-07-08T04:59:27;5.35;;;4.85;;
22904;SDS011;11619;50.140;8.518;2023-07-08T05:01:54;5.85;;;4.80;;
22904;SDS011;11619;50.140;8.518;2023-07-08T05:04:21;5.65;;;4.68;;
22904;SDS011;11619;50.140;8.518;2023-07-08T05:06:48;6.35;;;5.20;;
22904;SDS011;11619;50.140;8.518;2023-07-08T05:09:15;4.85;;;4.45;;
22904;SDS011;11619;50.140;8.518;2023-07-08T05:11:43;6.57;;;5.32;;
22904;SDS011;11619;50.140;8.518;2023-07-08T05:14:10;6.72;;;4.80;;
22904;SDS011;11619;50.140;8.518;2023-07-08T05:16:38;4.72;;;4.25;;
22904;SDS011;11619;50.140;8.518;2023-07-08T05:19:04;5.78;;;4.75;;
22904;SDS011;11619;50.140;8.518;2023-07-08T05:21:31;5.18;;;4.68;;
22904;SDS011;11619;50.140;8.518;2023-07-08T05:24:00;5.72;;;4.45;;
22904;SDS011;11619;50.140;8.518;2023-07-08T05:26:30;5.32;;;4.82;;
22904;SDS011;11619;50.140;8.518;2023-07-08T05:28:57;7.43;;;4.85;;
22904;SDS011;11619;50.140;8.518;2023-07-08T05:31:24;5.85;;;4.13;;
22904;SDS011;11619;50.140;8.518;2023-07-08T05:34:07;5.28;;;4.78;;
22904;SDS011;11619;50.140;8.518;2023-07-08T05:36:33;6.25;;;4.75;;
22904;SDS011;11619;50.140;8.518;2023-07-08T05:39:00;6.38;;;4.70;;
22904;SDS011;11619;50.140;8.518;2023-07-08T05:41:26;6.43;;;4.75;;
22904;SDS011;11619;50.140;8.518;2023-07-08T05:43:53;5.13;;;4.63;;
22904;SDS011;11619;50.140;8.518;2023-07-08T05:46:19;6.20;;;4.88;;
22904;SDS011;11619;50.140;8.518;2023-07-08T05:48:46;6.25;;;4.78;;
22904;SDS011;11619;50.140;8.518;2023-07-08T05:51:13;5.18;;;4.28;;
22904;SDS011;11619;50.140;8.518;2023-07-08T05:53:40;6.03;;;3.83;;
22904;SDS011;11619;50.140;8.518;2023-07-08T05:56:06;5.00;;;4.18;;
22904;SDS011;11619;50.140;8.518;2023-07-08T05:58:33;6.18;;;4.43;;
22904;SDS011;11619;50.140;8.518;2023-07-08T06:00:59;4.63;;;4.22;;
22904;SDS011;11619;50.140;8.518;2023-07-08T06:03:26;7.43;;;4.28;;
22904;SDS011;11619;50.140;8.518;2023-07-08T06:05:53;5.85;;;4.60;;
22904;SDS011;11619;50.140;8.518;2023-07-08T06:08:20;5.90;;;4.55;;
22904;SDS011;11619;50.140;8.518;2023-07-08T06:10:47;5.18;;;4.68;;
22904;SDS011;11619;50.140;8.518;2023-07-08T06:13:13;7.10;;;4.88;;
22904;SDS011;11619;50.140;8.518;2023-07-08T06:15:40;6.53;;;4.50;;
22904;SDS011;11619;50.140;8.518;2023-07-08T06:18:07;5.72;;;4.40;;
22904;SDS011;11619;50.140;8.518;2023-07-08T06:20:34;5.05;;;4.55;;
22904;SDS011;11619;50.140;8.518;2023-07-08T06:23:01;9.63;;;5.10;;
22904;SDS011;11619;50.140;8.518;2023-07-08T06:25:27;6.90;;;5.22;;
22904;SDS011;11619;50.140;8.518;2023-07-08T06:27:54;5.75;;;4.88;;
22904;SDS011;11619;50.140;8.518;2023-07-08T06:30:20;4.95;;;4.25;;
22904;SDS011;11619;50.140;8.518;2023-07-08T06:32:46;4.85;;;4.32;;
22904;SDS011;11619;50.140;8.518;2023-07-08T06:35:13;5.07;;;4.30;;
22904;SDS011;11619;50.140;8.518;2023-07-08T06:37:40;6.30;;;4.50;;
22904;SDS011;11619;50.140;8.518;2023-07-08T06:40:07;7.70;;;5.05;;
22904;SDS011;11619;50.140;8.518;2023-07-08T06:42:33;5.20;;;4.70;;
22904;SDS011;11619;50.140;8.518;2023-07-08T06:45:00;5.82;;;4.68;;
22904;SDS011;11619;50.140;8.518;2023-07-08T06:47:26;5.35;;;4.68;;
22904;SDS011;11619;50.140;8.518;2023-07-08T06:49:53;5.68;;;4.93;;
22904;SDS011;11619;50.140;8.518;2023-07-08T06:52:24;6.57;;;4.45;;
22904;SDS011;11619;50.140;8.518;2023-07-08T06:54:50;5.03;;;4.53;;
22904;SDS011;11619;50.140;8.518;2023-07-08T06:57:17;6.60;;;5.25;;
22904;SDS011;11619;50.140;8.518;2023-07-08T06:59:43;4.80;;;4.40;;
22904;SDS011;11619;50.140;8.518;2023-07-08T07:02:10;6.22;;;4.90;;
22904;SDS011;11619;50.140;8.518;2023-07-08T07:04:36;5.53;;;4.72;;
22904;SDS011;11619;50.140;8.518;2023-07-08T07:07:03;5.07;;;4.40;;
22904;SDS011;11619;50.140;8.518;2023-07-08T07:09:31;4.65;;;4.20;;
22904;SDS011;11619;50.140;8.518;2023-07-08T07:11:57;5.18;;;4.68;;
22904;SDS011;11619;50.140;8.518;2023-07-08T07:14:24;4.45;;;4.05;;
22904;SDS011;11619;50.140;8.518;2023-07-08T07:16:53;5.30;;;4.80;;
22904;SDS011;11619;50.140;8.518;2023-07-08T07:19:33;4.60;;;4.15;;
22904;SDS011;11619;50.140;8.518;2023-07-08T07:22:00;5.25;;;4.75;;
22904;SDS011;11619;50.140;8.518;2023-07-08T07:24:26;5.72;;;4.57;;
22904;SDS011;11619;50.140;8.518;2023-07-08T07:26:53;6.47;;;4.60;;
22904;SDS011;11619;50.140;8.518;2023-07-08T07:29:21;5.00;;;4.15;;
22904;SDS011;11619;50.140;8.518;2023-07-08T07:31:49;5.20;;;4.72;;
22904;SDS011;11619;50.140;8.518;2023-07-08T07:34:15;7.68;;;4.68;;
22904;SDS011;11619;50.140;8.518;2023-07-08T07:36:42;5.10;;;4.60;;
22904;SDS011;11619;50.140;8.518;2023-07-08T07:39:08;5.28;;;4.78;;
22904;SDS011;11619;50.140;8.518;2023-07-08T07:41:35;5.40;;;4.78;;
22904;SDS011;11619;50.140;8.518;2023-07-08T07:44:01;5.60;;;4.80;;
22904;SDS011;11619;50.140;8.518;2023-07-08T07:46:28;5.53;;;4.75;;
22904;SDS011;11619;50.140;8.518;2023-07-08T07:48:54;6.85;;;4.32;;
22904;SDS011;11619;50.140;8.518;2023-07-08T07:51:21;4.53;;;4.13;;
22904;SDS011;11619;50.140;8.518;2023-07-08T07:53:47;5.70;;;5.20;;
22904;SDS011;11619;50.140;8.518;2023-07-08T07:56:14;5.43;;;4.65;;
22904;SDS011;11619;50.140;8.518;2023-07-08T07:58:40;6.18;;;5.22;;
22904;SDS011;11619;50.140;8.518;2023-07-08T08:01:07;5.03;;;4.53;;
22904;SDS011;11619;50.140;8.518;2023-07-08T08:03:33;5.50;;;4.63;;
22904;SDS011;11619;50.140;8.518;2023-07-08T08:06:00;6.07;;;4.82;;
22904;SDS011;11619;50.140;8.518;2023-07-08T08:08:27;6.32;;;4.85;;
22904;SDS011;11619;50.140;8.518;2023-07-08T08:10:54;5.22;;;4.72;;
22904;SDS011;11619;50.140;8.518;2023-07-08T08:13:20;5.43;;;4.93;;
22904;SDS011;11619;50.140;8.518;2023-07-08T08:15:47;7.25;;;5.63;;
22904;SDS011;11619;50.140;8.518;2023-07-08T08:18:13;9.38;;;4.93;;
22904;SDS011;11619;50.140;8.518;2023-07-08T08:20:40;6.20;;;4.57;;
22904;SDS011;11619;50.140;8.518;2023-07-08T08:23:07;7.53;;;5.20;;
22904;SDS011;11619;50.140;8.518;2023-07-08T08:25:34;6.93;;;5.38;;
22904;SDS011;11619;50.140;8.518;2023-07-08T08:28:00;6.88;;;4.88;;
22904;SDS011;11619;50.140;8.518;2023-07-08T08:30:26;7.88;;;5.47;;
22904;SDS011;11619;50.140;8.518;2023-07-08T08:32:53;7.22;;;5.10;;
22904;SDS011;11619;50.140;8.518;2023-07-08T08:35:19;5.53;;;5.03;;
22904;SDS011;11619;50.140;8.518;2023-07-08T08:37:46;5.55;;;4.90;;
22904;SDS011;11619;50.140;8.518;2023-07-08T08:40:14;7.70;;;5.72;;
22904;SDS011;11619;50.140;8.518;2023-07-08T08:42:50;6.97;;;4.78;;
22904;SDS011;11619;50.140;8.518;2023-07-08T08:45:19;9.20;;;6.25;;
22904;SDS011;11619;50.140;8.518;2023-07-08T08:48:20;7.78;;;6.43;;
22904;SDS011;11619;50.140;8.518;2023-07-08T08:50:41;7.78;;;6.07;;
22904;SDS011;11619;50.140;8.518;2023-07-08T08:53:13;6.43;;;5.45;;
22904;SDS011;11619;50.140;8.518;2023-07-08T08:55:40;10.52;;;6.22;;
22904;SDS011;11619;50.140;8.518;2023-07-08T09:00:59;6.60;;;5.65;;
22904;SDS011;11619;50.140;8.518;2023-07-08T09:05:56;6.25;;;5.63;;
22904;SDS011;11619;50.140;8.518;2023-07-08T09:11:15;6.00;;;5.35;;
22904;SDS011;11619;50.140;8.518;2023-07-08T09:13:46;8.25;;;5.47;;
22904;SDS011;11619;50.140;8.518;2023-07-08T09:16:15;5.97;;;5.38;;
22904;SDS011;11619;50.140;8.518;2023-07-08T09:19:05;5.82;;;5.22;;
22904;SDS011;11619;50.140;8.518;2023-07-08T09:21:56;9.35;;;5.65;;
22904;SDS011;11619;50.140;8.518;2023-07-08T09:27:18;6.18;;;5.55;;
22904;SDS011;11619;50.140;8.518;2023-07-08T09:29:45;8.15;;;5.40;;
22904;SDS011;11619;50.140;8.518;2023-07-08T09:34:46;7.37;;;6.20;;
22904;SDS011;11619;50.140;8.518;2023-07-08T09:37:20;8.82;;;5.95;;
22904;SDS011;11619;50.140;8.518;2023-07-08T09:39:47;7.13;;;5.60;;
22904;SDS011;11619;50.140;8.518;2023-07-08T09:42:14;7.15;;;5.68;;
22904;SDS011;11619;50.140;8.518;2023-07-08T09:44:43;5.85;;;5.25;;
22904;SDS011;11619;50.140;8.518;2023-07-08T09:47:19;6.03;;;5.43;;
22904;SDS011;11619;50.140;8.518;2023-07-08T09:49:59;10.70;;;5.90;;
22904;SDS011;11619;50.140;8.518;2023-07-08T09:52:26;9.93;;;5.93;;
22904;SDS011;11619;50.140;8.518;2023-07-08T09:54:55;6.22;;;5.63;;
22904;SDS011;11619;50.140;8.518;2023-07-08T09:57:25;15.98;;;6.68;;
22904;SDS011;11619;50.140;8.518;2023-07-08T09:59:56;6.88;;;5.15;;
22904;SDS011;11619;50.140;8.518;2023-07-08T10:02:26;11.75;;;5.65;;
22904;SDS011;11619;50.140;8.518;2023-07-08T10:04:54;9.50;;;6.38;;
22904;SDS011;11619;50.140;8.518;2023-07-08T10:07:22;7.10;;;5.82;;
22904;SDS011;11619;50.140;8.518;2023-07-08T10:09:50;7.65;;;6.03;;
22904;SDS011;11619;50.140;8.518;2023-07-08T10:12:19;8.50;;;5.95;;
22904;SDS011;11619;50.140;8.518;2023-07-08T10:14:48;5.97;;;5.38;;
22904;SDS011;11619;50.140;8.518;2023-07-08T10:17:17;6.25;;;5.65;;
22904;SDS011;11619;50.140;8.518;2023-07-08T10:19:45;8.00;;;6.47;;
22904;SDS011;11619;50.140;8.518;2023-07-08T10:22:33;7.35;;;6.65;;
22904;SDS011;11619;50.140;8.518;2023-07-08T10:25:16;7.43;;;6.20;;
22904;SDS011;11619;50.140;8.518;2023-07-08T10:27:57;9.10;;;6.55;;
22904;SDS011;11619;50.140;8.518;2023-07-08T10:30:31;10.20;;;7.03;;
22904;SDS011;11619;50.140;8.518;2023-07-08T10:36:03;7.18;;;6.10;;
22904;SDS011;11619;50.140;8.518;2023-07-08T10:38:44;6.70;;;5.78;;
22904;SDS011;11619;50.140;8.518;2023-07-08T10:49:08;7.25;;;6.30;;
22904;SDS011;11619;50.140;8.518;2023-07-08T10:57:14;7.18;;;6.47;;
22904;SDS011;11619;50.140;8.518;2023-07-08T11:02:35;7.93;;;6.90;;
22904;SDS011;11619;50.140;8.518;2023-07-08T11:13:44;8.10;;;6.75;;
22904;SDS011;11619;50.140;8.518;2023-07-08T11:16:35;9.73;;;6.57;;
22904;SDS011;11619;50.140;8.518;2023-07-08T11:19:06;11.27;;;6.28;;
22904;SDS011;11619;50.140;8.518;2023-07-08T11:21:37;7.15;;;6.30;;
22904;SDS011;11619;50.140;8.518;2023-07-08T11:32:21;7.68;;;6.97;;
22904;SDS011;11619;50.140;8.518;2023-07-08T11:34:50;8.10;;;6.82;;
22904;SDS011;11619;50.140;8.518;2023-07-08T11:37:17;7.00;;;6.30;;
22904;SDS011;11619;50.140;8.518;2023-07-08T11:39:53;7.20;;;6.20;;
22904;SDS011;11619;50.140;8.518;2023-07-08T11:42:41;5.97;;;5.47;;
22904;SDS011;11619;50.140;8.518;2023-07-08T11:47:47;8.15;;;6.05;;
22904;SDS011;11619;50.140;8.518;2023-07-08T11:53:01;6.35;;;5.75;;
22904;SDS011;11619;50.140;8.518;2023-07-08T11:55:37;6.30;;;5.72;;
22904;SDS011;11619;50.140;8.518;2023-07-08T11:58:13;10.23;;;6.50;;
22904;SDS011;11619;50.140;8.518;2023-07-08T12:00:45;8.93;;;6.22;;
22904;SDS011;11619;50.140;8.518;2023-07-08T12:03:37;7.50;;;6.80;;
22904;SDS011;11619;50.140;8.518;2023-07-08T12:08:53;13.93;;;6.57;;
22904;SDS011;11619;50.140;8.518;2023-07-08T12:11:32;8.73;;;6.00;;
22904;SDS011;11619;50.140;8.518;2023-07-08T12:14:00;11.25;;;6.13;;
22904;SDS011;11619;50.140;8.518;2023-07-08T12:16:29;6.28;;;5.50;;
22904;SDS011;11619;50.140;8.518;2023-07-08T12:18:57;6.65;;;5.95;;
22904;SDS011;11619;50.140;8.518;2023-07-08T12:21:26;8.05;;;6.47;;
22904;SDS011;11619;50.140;8.518;2023-07-08T12:23:53;7.35;;;5.38;;
22904;SDS011;11619;50.140;8.518;2023-07-08T12:26:21;7.22;;;5.68;;
22904;SDS011;11619;50.140;8.518;2023-07-08T12:28:50;6.78;;;6.18;;
22904;SDS011;11619;50.140;8.518;2023-07-08T12:31:20;6.70;;;5.72;;
22904;SDS011;11619;50.140;8.518;2023-07-08T12:33:47;6.82;;;5.82;;
22904;SDS011;11619;50.140;8.518;2023-07-08T12:36:16;6.45;;;5.72;;
22904;SDS011;11619;50.140;8.518;2023-07-08T12:38:45;11.25;;;5.95;;
22904;SDS011;11619;50.140;8.518;2023-07-08T12:41:20;6.82;;;5.95;;
22904;SDS011;11619;50.140;8.518;2023-07-08T12:43:51;8.68;;;5.65;;
22904;SDS011;11619;50.140;8.518;2023-07-08T12:46:18;7.22;;;5.72;;
22904;SDS011;11619;50.140;8.518;2023-07-08T12:48:47;5.85;;;5.35;;
22904;SDS011;11619;50.140;8.518;2023-07-08T12:51:14;7.30;;;5.68;;
22904;SDS011;11619;50.140;8.518;2023-07-08T12:53:43;10.00;;;5.60;;
22904;SDS011;11619;50.140;8.518;2023-07-08T12:56:10;5.47;;;4.95;;
22904;SDS011;11619;50.140;8.518;2023-07-08T12:58:38;10.30;;;5.85;;
22904;SDS011;11619;50.140;8.518;2023-07-08T13:01:06;7.18;;;6.07;;
22904;SDS011;11619;50.140;8.518;2023-07-08T13:03:37;12.18;;;6.28;;
22904;SDS011;11619;50.140;8.518;2023-07-08T13:06:09;6.65;;;5.93;;
22904;SDS011;11619;50.140;8.518;2023-07-08T13:08:36;5.88;;;5.28;;
22904;SDS011;11619;50.140;8.518;2023-07-08T13:11:05;6.82;;;6.10;;
22904;SDS011;11619;50.140;8.518;2023-07-08T13:13:35;8.98;;;5.93;;
22904;SDS011;11619;50.140;8.518;2023-07-08T13:16:04;8.02;;;5.78;;
22904;SDS011;11619;50.140;8.518;2023-07-08T13:18:33;12.13;;;7.43;;
22904;SDS011;11619;50.140;8.518;2023-07-08T13:21:00;6.95;;;6.25;;
22904;SDS011;11619;50.140;8.518;2023-07-08T13:23:28;7.55;;;5.72;;
22904;SDS011;11619;50.140;8.518;2023-07-08T13:25:55;6.55;;;5.95;;
22904;SDS011;11619;50.140;8.518;2023-07-08T13:28:26;7.10;;;5.70;;
22904;SDS011;11619;50.140;8.518;2023-07-08T13:31:00;6.70;;;5.53;;
22904;SDS011;11619;50.140;8.518;2023-07-08T13:33:29;7.38;;;6.07;;
22904;SDS011;11619;50.140;8.518;2023-07-08T13:35:57;7.15;;;6.25;;
22904;SDS011;11619;50.140;8.518;2023-07-08T13:38:26;8.63;;;6.07;;
22904;SDS011;11619;50.140;8.518;2023-07-08T13:41:00;7.53;;;6.22;;
22904;SDS011;11619;50.140;8.518;2023-07-08T13:43:29;8.30;;;5.93;;
22904;SDS011;11619;50.140;8.518;2023-07-08T13:45:57;9.98;;;6.25;;
22904;SDS011;11619;50.140;8.518;2023-07-08T13:48:30;7.65;;;5.85;;
22904;SDS011;11619;50.140;8.518;2023-07-08T13:51:02;8.57;;;5.70;;
22904;SDS011;11619;50.140;8.518;2023-07-08T13:53:40;5.88;;;5.28;;
22904;SDS011;11619;50.140;8.518;2023-07-08T13:56:14;7.32;;;5.95;;
22904;SDS011;11619;50.140;8.518;2023-07-08T13:58:52;7.07;;;5.88;;
22904;SDS011;11619;50.140;8.518;2023-07-08T14:01:26;6.13;;;5.53;;
22904;SDS011;11619;50.140;8.518;2023-07-08T14:03:54;7.13;;;5.85;;
22904;SDS011;11619;50.140;8.518;2023-07-08T14:06:25;8.20;;;5.95;;
22904;SDS011;11619;50.140;8.518;2023-07-08T14:08:56;6.90;;;5.75;;
22904;SDS011;11619;50.140;8.518;2023-07-08T14:11:30;9.35;;;5.40;;
22904;SDS011;11619;50.140;8.518;2023-07-08T14:13:56;7.07;;;5.90;;
22904;SDS011;11619;50.140;8.518;2023-07-08T14:16:23;7.50;;;5.22;;
22904;SDS011;11619;50.140;8.518;2023-07-08T14:18:51;6.80;;;5.80;;
22904;SDS011;11619;50.140;8.518;2023-07-08T14:21:18;6.97;;;5.05;;
22904;SDS011;11619;50.140;8.518;2023-07-08T14:23:44;7.60;;;5.78;;
22904;SDS011;11619;50.140;8.518;2023-07-08T14:26:11;6.50;;;5.00;;
22904;SDS011;11619;50.140;8.518;2023-07-08T14:28:38;6.93;;;4.97;;
22904;SDS011;11619;50.140;8.518;2023-07-08T14:31:08;7.20;;;5.72;;
22904;SDS011;11619;50.140;8.518;2023-07-08T14:33:36;8.35;;;5.65;;
22904;SDS011;11619;50.140;8.518;2023-07-08T14:36:02;6.57;;;5.38;;
22904;SDS011;11619;50.140;8.518;2023-07-08T14:38:29;8.50;;;5.80;;
22904;SDS011;11619;50.140;8.518;2023-07-08T14:40:55;9.55;;;5.72;;
22904;SDS011;11619;50.140;8.518;2023-07-08T14:43:27;6.63;;;5.88;;
22904;SDS011;11619;50.140;8.518;2023-07-08T14:45:55;6.05;;;5.40;;
22904;SDS011;11619;50.140;8.518;2023-07-08T14:48:23;9.05;;;5.50;;
22904;SDS011;11619;50.140;8.518;2023-07-08T14:50:52;7.32;;;5.70;;
22904;SDS011;11619;50.140;8.518;2023-07-08T14:53:19;7.47;;;5.25;;
22904;SDS011;11619;50.140;8.518;2023-07-08T14:55:46;7.88;;;5.47;;
22904;SDS011;11619;50.140;8.518;2023-07-08T14:58:32;7.30;;;5.65;;
22904;SDS011;11619;50.140;8.518;2023-07-08T15:01:00;8.15;;;5.90;;
22904;SDS011;11619;50.140;8.518;2023-07-08T15:03:29;9.48;;;5.45;;
22904;SDS011;11619;50.140;8.518;2023-07-08T15:05:57;8.43;;;5.80;;
22904;SDS011;11619;50.140;8.518;2023-07-08T15:08:24;7.82;;;5.80;;
22904;SDS011;11619;50.140;8.518;2023-07-08T15:10:51;5.65;;;5.10;;
22904;SDS011;11619;50.140;8.518;2023-07-08T15:13:18;7.85;;;5.43;;
22904;SDS011;11619;50.140;8.518;2023-07-08T15:15:45;8.52;;;5.75;;
22904;SDS011;11619;50.140;8.518;2023-07-08T15:18:16;6.25;;;5.65;;
22904;SDS011;11619;50.140;8.518;2023-07-08T15:20:44;6.30;;;5.70;;
22904;SDS011;11619;50.140;8.518;2023-07-08T15:23:11;8.48;;;5.32;;
22904;SDS011;11619;50.140;8.518;2023-07-08T15:25:39;7.32;;;5.13;;
22904;SDS011;11619;50.140;8.518;2023-07-08T15:28:09;7.88;;;5.57;;
22904;SDS011;11619;50.140;8.518;2023-07-08T15:31:00;6.60;;;5.35;;
22904;SDS011;11619;50.140;8.518;2023-07-08T15:33:28;9.13;;;5.15;;
22904;SDS011;11619;50.140;8.518;2023-07-08T15:35:54;6.25;;;5.30;;
22904;SDS011;11619;50.140;8.518;2023-07-08T15:38:21;7.85;;;4.97;;
22904;SDS011;11619;50.140;8.518;2023-07-08T15:40:47;5.90;;;5.32;;
22904;SDS011;11619;50.140;8.518;2023-07-08T15:43:17;6.43;;;5.18;;
22904;SDS011;11619;50.140;8.518;2023-07-08T15:45:45;5.80;;;4.85;;
22904;SDS011;11619;50.140;8.518;2023-07-08T15:48:12;6.05;;;5.10;;
22904;SDS011;11619;50.140;8.518;2023-07-08T15:50:42;6.07;;;5.05;;
22904;SDS011;11619;50.140;8.518;2023-07-08T15:53:09;8.20;;;4.95;;
22904;SDS011;11619;50.140;8.518;2023-07-08T15:55:36;8.30;;;4.90;;
22904;SDS011;11619;50.140;8.518;2023-07-08T15:58:12;8.38;;;4.88;;